Terminal Aerodrome Forecast
Issued by NWS

Home | Current Version | Previous Version | Text Only | Print | Product List | Glossary On
Versions: 1 2 3 4 5 6 7 8 9 10 11 12 13 14 15 16
000
FTUS45 KGJT 282345
TAFMTJ
TAF
KMTJ 282345Z 2900/2924 VRB03KT P6SM VCSH SCT070 SCT100
     FM290200 15006KT P6SM BKN090
     FM291500 29005KT P6SM SCT060 BKN090
     FM291900 32009KT P6SM -SHRA SCT035 BKN050=

USA.gov is the U.S. government's official web portal to all federal, state and local government web resources and services.